createdAt,value
2023-01-10T00:00:44.017Z,15.90
2023-01-10T00:03:12.312Z,13.38
2023-01-10T00:05:40.561Z,13.45
2023-01-10T00:08:08.690Z,12.45
2023-01-10T00:10:36.367Z,12.63
2023-01-10T00:13:29.862Z,19.37
2023-01-10T00:15:57.145Z,17.58
2023-01-10T00:18:24.486Z,16.23
2023-01-10T00:20:51.796Z,13.02
2023-01-10T00:23:20.020Z,23.80
2023-01-10T00:25:47.058Z,19.13
2023-01-10T00:28:20.530Z,13.93
2023-01-10T00:30:55.253Z,16.35
2023-01-10T00:33:23.026Z,16.73
2023-01-10T00:35:50.294Z,17.25
2023-01-10T00:38:17.353Z,18.90
2023-01-10T00:40:45.917Z,15.18
2023-01-10T00:45:58.880Z,17.17
2023-01-10T00:48:25.880Z,11.85
2023-01-10T00:50:52.995Z,17.15
2023-01-10T00:53:20.239Z,20.42
2023-01-10T00:55:47.229Z,21.27
2023-01-10T00:58:15.546Z,23.98
2023-01-10T01:00:46.908Z,16.88
2023-01-10T01:03:14.268Z,19.15
2023-01-10T01:05:45.715Z,19.33
2023-01-10T01:08:14.749Z,20.13
2023-01-10T01:10:42.694Z,19.10
2023-01-10T01:13:11.137Z,15.32
2023-01-10T01:15:38.423Z,17.02
2023-01-10T01:18:06.382Z,20.30
2023-01-10T01:20:33.756Z,15.45
2023-01-10T01:23:01.196Z,12.15
2023-01-10T01:25:28.268Z,18.80
2023-01-10T01:27:55.341Z,14.98
2023-01-10T01:30:22.475Z,18.55
2023-01-10T01:32:49.464Z,14.23
2023-01-10T01:35:17.264Z,17.88
2023-01-10T01:37:44.972Z,19.02
2023-01-10T01:40:18.024Z,18.17
2023-01-10T01:42:46.858Z,17.52
2023-01-10T01:45:23.175Z,15.18
2023-01-10T01:48:01.683Z,18.13
2023-01-10T01:50:34.937Z,16.45
2023-01-10T01:53:05.069Z,15.18
2023-01-10T01:55:34.816Z,14.48
2023-01-10T01:58:08.794Z,18.25
2023-01-10T02:00:35.864Z,14.25
2023-01-10T02:03:04.809Z,18.85
2023-01-10T02:05:34.555Z,12.98
2023-01-10T02:08:02.450Z,12.27
2023-01-10T02:11:21.710Z,12.07
2023-01-10T02:13:50.596Z,8.60
2023-01-10T02:16:19.421Z,11.63
2023-01-10T02:18:46.471Z,14.60
2023-01-10T02:21:39.195Z,15.43
2023-01-10T02:24:27.475Z,17.20
2023-01-10T02:27:11.406Z,17.20
2023-01-10T02:29:56.616Z,23.95
2023-01-10T02:33:00.243Z,9.68
2023-01-10T02:36:09.834Z,13.57
2023-01-10T02:38:58.804Z,14.82
2023-01-10T02:41:50.535Z,14.40
2023-01-10T02:44:36.001Z,13.07
2023-01-10T02:47:04.456Z,9.55
2023-01-10T02:49:31.505Z,13.52
2023-01-10T02:51:58.532Z,13.15
2023-01-10T02:54:30.787Z,11.98
2023-01-10T02:57:16.646Z,15.18
2023-01-10T03:00:09.484Z,14.95
2023-01-10T03:03:14.708Z,12.55
2023-01-10T03:06:01.812Z,9.88
2023-01-10T03:08:53.369Z,15.38
2023-01-10T03:11:40.054Z,11.73
2023-01-10T03:14:26.060Z,15.02
2023-01-10T03:17:00.706Z,11.52
2023-01-10T03:19:33.881Z,16.55
2023-01-10T03:22:03.586Z,19.73
2023-01-10T03:24:39.045Z,16.83
2023-01-10T03:27:27.722Z,14.05
2023-01-10T03:30:14.194Z,10.25
2023-01-10T03:32:42.884Z,9.25
2023-01-10T03:37:49.598Z,12.48
2023-01-10T03:40:19.372Z,13.93
2023-01-10T03:43:13.758Z,13.95
2023-01-10T03:45:45.754Z,9.30
2023-01-10T03:48:16.025Z,13.27
2023-01-10T03:50:44.702Z,15.02
2023-01-10T03:55:42.300Z,19.35
2023-01-10T03:58:09.330Z,19.67
2023-01-10T04:00:36.458Z,17.85
2023-01-10T04:03:03.472Z,15.73
2023-01-10T04:05:30.448Z,20.48
2023-01-10T04:07:57.462Z,13.73
2023-01-10T04:10:27.199Z,15.73
2023-01-10T04:12:54.218Z,13.82
2023-01-10T04:15:21.379Z,18.48
2023-01-10T04:17:48.846Z,19.85
2023-01-10T04:20:16.155Z,22.52
2023-01-10T04:22:44.834Z,18.52
2023-01-10T04:27:38.927Z,14.35
2023-01-10T04:30:06.641Z,15.77
2023-01-10T04:32:33.696Z,18.45
2023-01-10T04:35:00.781Z,18.60
2023-01-10T04:37:27.851Z,12.27
2023-01-10T04:39:54.885Z,12.30
2023-01-10T04:42:21.849Z,14.20
2023-01-10T04:44:48.831Z,20.73
2023-01-10T04:47:15.801Z,16.33
2023-01-10T04:49:42.770Z,16.92
2023-01-10T04:52:10.797Z,16.30
2023-01-10T04:54:37.748Z,10.32
2023-01-10T04:57:05.898Z,14.05
2023-01-10T04:59:33.267Z,11.10
2023-01-10T05:02:00.369Z,13.60
2023-01-10T05:04:27.415Z,13.13
2023-01-10T05:06:54.409Z,18.38
2023-01-10T05:09:21.471Z,15.82
2023-01-10T05:11:48.458Z,13.45
2023-01-10T05:14:15.448Z,15.43
2023-01-10T05:16:42.505Z,18.30
2023-01-10T05:19:09.577Z,12.88
2023-01-10T05:21:36.603Z,13.85
2023-01-10T05:24:03.787Z,17.27
2023-01-10T05:26:30.779Z,21.42
2023-01-10T05:28:57.770Z,18.38
2023-01-10T05:31:24.808Z,13.73
2023-01-10T05:33:52.333Z,16.48
2023-01-10T05:36:19.783Z,16.25
2023-01-10T05:38:47.180Z,8.27
2023-01-10T05:41:14.200Z,15.90
2023-01-10T05:43:41.540Z,13.40
2023-01-10T05:46:08.732Z,8.10
2023-01-10T05:48:35.791Z,14.38
2023-01-10T05:51:03.783Z,20.38
2023-01-10T05:53:30.895Z,15.98
2023-01-10T05:56:00.036Z,22.83
2023-01-10T05:58:28.101Z,17.90
2023-01-10T06:00:56.380Z,14.48
2023-01-10T06:03:23.611Z,15.82
2023-01-10T06:05:50.586Z,12.30
2023-01-10T06:08:17.677Z,18.05
2023-01-10T06:10:44.874Z,18.55
2023-01-10T06:13:12.352Z,12.57
2023-01-10T06:15:39.619Z,14.77
2023-01-10T06:18:07.208Z,13.70
2023-01-10T06:20:34.534Z,11.05
2023-01-10T06:23:04.748Z,22.10
2023-01-10T06:25:37.051Z,20.95
2023-01-10T06:28:04.473Z,12.52
2023-01-10T06:30:31.479Z,18.25
2023-01-10T06:33:05.941Z,14.98
2023-01-10T06:35:33.606Z,21.65
2023-01-10T06:38:00.639Z,16.73
2023-01-10T06:40:28.555Z,15.77
2023-01-10T06:42:55.635Z,17.25
2023-01-10T06:45:22.667Z,11.43
2023-01-10T06:47:49.568Z,11.45
2023-01-10T06:50:16.746Z,17.15
2023-01-10T06:52:43.720Z,16.75
2023-01-10T06:55:10.717Z,16.02
2023-01-10T06:57:38.679Z,17.40
2023-01-10T07:00:08.179Z,12.70
2023-01-10T07:02:35.327Z,10.50
2023-01-10T07:05:02.448Z,17.25
2023-01-10T07:07:29.598Z,14.63
2023-01-10T07:09:56.636Z,15.70
2023-01-10T07:12:23.603Z,16.58
2023-01-10T07:14:50.613Z,10.35
2023-01-10T07:17:17.680Z,14.70
2023-01-10T07:19:44.693Z,8.95
2023-01-10T07:22:12.549Z,13.90
2023-01-10T07:24:39.491Z,17.23
2023-01-10T07:27:06.553Z,10.00
2023-01-10T07:29:33.603Z,12.50
2023-01-10T07:32:00.628Z,13.65
2023-01-10T07:34:27.745Z,11.52
2023-01-10T07:36:54.768Z,11.20
2023-01-10T07:39:21.783Z,11.63
2023-01-10T07:41:49.850Z,10.93
2023-01-10T07:44:17.221Z,19.45
2023-01-10T07:46:44.327Z,9.23
2023-01-10T07:49:11.420Z,7.55
2023-01-10T07:51:38.409Z,9.20
2023-01-10T07:54:05.506Z,10.98
2023-01-10T07:56:32.871Z,11.45
2023-01-10T07:59:01.372Z,9.38
2023-01-10T08:03:58.851Z,8.55
2023-01-10T08:06:25.927Z,13.10
2023-01-10T08:08:53.078Z,15.25
2023-01-10T08:11:20.141Z,9.02
2023-01-10T08:13:47.177Z,9.43
2023-01-10T08:16:15.696Z,10.65
2023-01-10T08:21:10.777Z,13.80
2023-01-10T08:23:38.054Z,15.80
2023-01-10T08:26:05.876Z,10.35
2023-01-10T08:28:33.389Z,8.20
2023-01-10T08:31:06.208Z,14.15
2023-01-10T08:33:33.712Z,7.50
2023-01-10T08:36:00.732Z,16.40
2023-01-10T08:38:27.925Z,10.75
2023-01-10T08:40:58.423Z,10.68
2023-01-10T08:43:25.436Z,9.18
2023-01-10T08:45:52.491Z,10.82
2023-01-10T08:48:19.612Z,14.27
2023-01-10T08:50:46.570Z,11.15
2023-01-10T08:53:13.896Z,11.85
2023-01-10T08:55:40.952Z,12.45
2023-01-10T08:58:09.676Z,12.18
2023-01-10T09:00:36.618Z,8.90
2023-01-10T09:03:06.678Z,19.10
2023-01-10T09:05:33.760Z,9.20
2023-01-10T09:08:02.206Z,8.45
2023-01-10T09:10:30.318Z,7.05
2023-01-10T09:13:01.847Z,9.50
2023-01-10T09:15:34.883Z,6.07
2023-01-10T09:18:07.123Z,7.10
2023-01-10T09:20:37.030Z,5.90
2023-01-10T09:23:20.147Z,7.57
2023-01-10T09:25:49.007Z,9.07
2023-01-10T09:28:16.067Z,4.65
2023-01-10T09:30:44.150Z,7.00
2023-01-10T09:33:11.897Z,9.95
2023-01-10T09:35:40.864Z,5.90
2023-01-10T09:38:18.978Z,4.75
2023-01-10T09:41:00.276Z,2.92
2023-01-10T09:43:35.974Z,6.03
2023-01-10T09:46:07.758Z,6.50
2023-01-10T09:49:04.892Z,5.00
2023-01-10T09:51:44.990Z,3.55
2023-01-10T09:54:25.753Z,3.60
2023-01-10T09:56:53.881Z,2.38
2023-01-10T09:59:25.228Z,2.22
2023-01-10T10:01:59.620Z,2.13
2023-01-10T10:04:37.113Z,2.65
2023-01-10T10:07:08.685Z,2.50
2023-01-10T10:09:35.734Z,3.47
2023-01-10T10:12:17.818Z,2.10
2023-01-10T10:15:23.218Z,1.83
2023-01-10T10:18:16.821Z,1.77
2023-01-10T10:20:59.185Z,3.05
2023-01-10T10:23:34.624Z,1.20
2023-01-10T10:26:13.313Z,0.98
2023-01-10T10:28:57.874Z,0.85
2023-01-10T10:31:33.854Z,1.20
2023-01-10T10:34:39.893Z,0.95
2023-01-10T10:37:24.776Z,1.40
2023-01-10T10:39:57.549Z,1.52
2023-01-10T10:42:30.382Z,1.17
2023-01-10T10:45:05.044Z,0.93
2023-01-10T10:47:35.303Z,0.88
2023-01-10T10:50:02.367Z,1.88
2023-01-10T10:52:32.383Z,0.65
2023-01-10T10:54:59.812Z,0.80
2023-01-10T10:57:29.782Z,1.00
2023-01-10T10:59:57.906Z,0.70
2023-01-10T11:02:33.447Z,0.90
2023-01-10T11:05:05.056Z,0.80
2023-01-10T11:07:37.576Z,0.40
2023-01-10T11:10:35.129Z,1.27
2023-01-10T11:13:48.093Z,0.68
2023-01-10T11:16:31.664Z,1.38
2023-01-10T11:19:13.685Z,0.50
2023-01-10T11:21:41.537Z,0.75
2023-01-10T11:24:23.091Z,1.50
2023-01-10T11:26:51.457Z,0.40
2023-01-10T11:29:26.499Z,0.73
2023-01-10T11:31:56.163Z,0.40
2023-01-10T11:34:30.651Z,0.57
2023-01-10T11:36:57.622Z,0.40
2023-01-10T11:39:25.412Z,0.40
2023-01-10T11:41:53.442Z,0.40
2023-01-10T11:44:24.544Z,0.40
2023-01-10T11:46:59.133Z,1.27
2023-01-10T11:49:39.499Z,0.63
2023-01-10T11:52:29.737Z,0.50
2023-01-10T11:55:00.490Z,0.85
2023-01-10T11:57:30.851Z,1.65
2023-01-10T12:00:09.665Z,2.15
2023-01-10T12:02:44.657Z,0.93
2023-01-10T12:08:07.850Z,0.43
2023-01-10T12:10:35.760Z,2.00
2023-01-10T12:13:16.768Z,0.82
2023-01-10T12:15:43.784Z,2.92
2023-01-10T12:18:12.170Z,0.50
2023-01-10T12:20:52.607Z,0.57
2023-01-10T12:23:25.250Z,1.25
2023-01-10T12:26:07.172Z,0.80
2023-01-10T12:28:51.525Z,1.05
2023-01-10T12:31:21.788Z,0.50
2023-01-10T12:33:56.541Z,0.40
2023-01-10T12:36:44.728Z,1.20
2023-01-10T12:39:18.394Z,0.82
2023-01-10T12:42:24.191Z,2.28
2023-01-10T12:44:58.460Z,0.80
2023-01-10T12:47:33.821Z,0.82
2023-01-10T12:50:41.778Z,0.80
2023-01-10T12:53:31.824Z,0.73
2023-01-10T12:56:01.681Z,1.00
2023-01-10T12:59:03.888Z,0.90
2023-01-10T13:01:40.590Z,0.85
2023-01-10T13:04:16.410Z,1.00
2023-01-10T13:06:44.615Z,0.70
2023-01-10T13:09:17.951Z,0.63
2023-01-10T13:12:01.238Z,0.75
2023-01-10T13:14:46.667Z,0.95
2023-01-10T13:17:28.397Z,2.60
2023-01-10T13:20:19.301Z,1.10
2023-01-10T13:22:48.278Z,1.25
2023-01-10T13:25:28.963Z,0.65
2023-01-10T13:28:27.053Z,0.55
2023-01-10T13:31:18.803Z,1.35
2023-01-10T13:34:00.890Z,0.82
2023-01-10T13:36:37.822Z,1.58
2023-01-10T13:39:09.043Z,0.65
2023-01-10T13:42:16.604Z,2.22
2023-01-10T13:45:01.979Z,2.20
2023-01-10T13:47:40.925Z,2.35
2023-01-10T13:50:23.387Z,1.10
2023-01-10T13:52:53.629Z,0.70
2023-01-10T13:55:29.970Z,1.48
2023-01-10T13:58:02.028Z,2.03
2023-01-10T14:00:53.611Z,2.63
2023-01-10T14:03:53.512Z,1.27
2023-01-10T14:06:29.769Z,2.25
2023-01-10T14:09:03.882Z,0.75
2023-01-10T14:11:42.837Z,1.75
2023-01-10T14:14:23.616Z,3.40
2023-01-10T14:16:54.871Z,2.35
2023-01-10T14:19:30.977Z,1.02
2023-01-10T14:22:01.495Z,2.80
2023-01-10T14:24:42.374Z,0.60
2023-01-10T14:27:17.747Z,0.60
2023-01-10T14:29:53.000Z,2.13
2023-01-10T14:32:38.992Z,1.65
2023-01-10T14:35:08.593Z,3.85
2023-01-10T14:37:43.599Z,0.68
2023-01-10T14:40:32.599Z,1.83
2023-01-10T14:43:03.744Z,2.78
2023-01-10T14:46:01.595Z,1.60
2023-01-10T14:48:35.800Z,0.98
2023-01-10T14:51:23.989Z,3.03
2023-01-10T14:54:04.389Z,1.55
2023-01-10T14:56:43.756Z,3.47
2023-01-10T14:59:25.980Z,4.82
2023-01-10T15:01:59.209Z,2.58
2023-01-10T15:04:36.261Z,2.65
2023-01-10T15:07:12.081Z,3.00
2023-01-10T15:09:39.528Z,2.42
2023-01-10T15:12:12.027Z,3.08
2023-01-10T15:14:39.221Z,2.90
2023-01-10T15:17:09.137Z,2.88
2023-01-10T15:19:38.579Z,3.03
2023-01-10T15:22:34.495Z,3.05
2023-01-10T15:25:25.578Z,1.77
2023-01-10T15:27:53.268Z,1.25
2023-01-10T15:30:26.162Z,2.23
2023-01-10T15:32:56.855Z,0.98
2023-01-10T15:35:35.207Z,1.95
2023-01-10T15:38:16.701Z,1.08
2023-01-10T15:40:44.334Z,1.30
2023-01-10T15:43:21.760Z,1.80
2023-01-10T15:48:33.527Z,1.02
2023-01-10T15:51:04.274Z,4.28
2023-01-10T15:53:53.067Z,3.03
2023-01-10T15:56:26.110Z,1.45
2023-01-10T15:58:53.832Z,2.05
2023-01-10T16:01:21.152Z,4.50
2023-01-10T16:03:50.091Z,2.47
2023-01-10T16:06:23.517Z,3.40
2023-01-10T16:08:53.750Z,3.45
2023-01-10T16:12:05.064Z,3.35
2023-01-10T16:14:33.728Z,3.38
2023-01-10T16:17:01.686Z,2.25
2023-01-10T16:19:29.270Z,3.65
2023-01-10T16:21:58.211Z,3.43
2023-01-10T16:24:30.644Z,6.05
2023-01-10T16:27:00.535Z,3.17
2023-01-10T16:29:28.002Z,3.70
2023-01-10T16:31:55.356Z,4.00
2023-01-10T16:34:22.504Z,6.38
2023-01-10T16:36:49.433Z,4.43
2023-01-10T16:39:18.945Z,4.35
2023-01-10T16:42:05.489Z,4.88
2023-01-10T16:44:33.979Z,6.80
2023-01-10T16:49:28.296Z,4.78
2023-01-10T16:51:57.457Z,7.70
2023-01-10T16:54:28.379Z,5.90
2023-01-10T16:56:55.934Z,5.57
2023-01-10T16:59:23.000Z,4.10
2023-01-10T17:01:58.394Z,3.83
2023-01-10T17:04:35.017Z,4.38
2023-01-10T17:07:02.246Z,1.83
2023-01-10T17:09:31.045Z,5.03
2023-01-10T17:12:13.797Z,3.30
2023-01-10T17:14:40.755Z,3.95
2023-01-10T17:17:07.776Z,3.58
2023-01-10T17:19:34.787Z,3.08
2023-01-10T17:22:01.779Z,3.97
2023-01-10T17:24:29.967Z,3.08
2023-01-10T17:26:57.005Z,5.45
2023-01-10T17:29:23.951Z,2.38
2023-01-10T17:31:51.157Z,2.67
2023-01-10T17:34:18.248Z,1.85
2023-01-10T17:36:45.221Z,2.60
2023-01-10T17:39:12.313Z,1.40
2023-01-10T17:41:39.283Z,4.28
2023-01-10T17:44:06.276Z,1.60
2023-01-10T17:46:33.297Z,2.92
2023-01-10T17:49:02.333Z,2.95
2023-01-10T17:51:29.293Z,3.35
2023-01-10T17:53:56.322Z,3.85
2023-01-10T17:56:23.509Z,4.25
2023-01-10T17:58:51.807Z,2.08
2023-01-10T18:01:24.681Z,3.22
2023-01-10T18:03:52.816Z,1.50
2023-01-10T18:06:24.352Z,2.00
2023-01-10T18:08:52.228Z,3.70
2023-01-10T18:11:19.345Z,2.92
2023-01-10T18:13:46.303Z,1.02
2023-01-10T18:16:13.225Z,1.70
2023-01-10T18:18:40.201Z,3.55
2023-01-10T18:21:13.579Z,1.30
2023-01-10T18:23:40.677Z,2.08
2023-01-10T18:26:10.534Z,2.05
2023-01-10T18:28:43.364Z,1.75
2023-01-10T18:31:16.229Z,1.48
2023-01-10T18:33:47.518Z,2.42
2023-01-10T18:36:17.294Z,2.38
2023-01-10T18:38:45.889Z,1.58
2023-01-10T18:41:13.257Z,1.90
2023-01-10T18:43:40.329Z,2.78
2023-01-10T18:46:11.708Z,1.73
2023-01-10T18:48:40.681Z,1.67
2023-01-10T18:51:10.052Z,2.90
2023-01-10T18:53:37.180Z,1.42
2023-01-10T18:56:05.662Z,1.20
2023-01-10T19:01:12.372Z,1.33
2023-01-10T19:03:39.857Z,1.75
2023-01-10T19:06:11.232Z,1.95
2023-01-10T19:08:39.525Z,1.80
2023-01-10T19:11:13.779Z,2.92
2023-01-10T19:13:42.621Z,0.70
2023-01-10T19:18:36.707Z,0.65
2023-01-10T19:21:04.576Z,0.88
2023-01-10T19:23:32.882Z,2.40
2023-01-10T19:26:00.090Z,0.50
2023-01-10T19:28:29.789Z,1.83
2023-01-10T19:31:04.139Z,0.50
2023-01-10T19:33:34.562Z,2.15
2023-01-10T19:36:09.764Z,3.45
2023-01-10T19:38:36.898Z,1.73
2023-01-10T19:41:04.063Z,0.50
2023-01-10T19:43:31.212Z,0.52
2023-01-10T19:45:58.357Z,0.75
2023-01-10T19:48:25.383Z,0.90
2023-01-10T19:50:52.473Z,1.02
2023-01-10T19:53:23.849Z,0.60
2023-01-10T19:56:00.605Z,0.77
2023-01-10T19:58:27.690Z,0.82
2023-01-10T20:00:54.748Z,1.63
2023-01-10T20:03:21.850Z,1.35
2023-01-10T20:05:48.861Z,0.75
2023-01-10T20:08:15.828Z,4.68
2023-01-10T20:10:42.876Z,3.05
2023-01-10T20:13:10.491Z,2.40
2023-01-10T20:15:37.512Z,2.13
2023-01-10T20:18:04.850Z,2.83
2023-01-10T20:20:31.800Z,3.15
2023-01-10T20:22:58.808Z,2.50
2023-01-10T20:25:25.728Z,3.00
2023-01-10T20:27:53.109Z,3.10
2023-01-10T20:30:20.144Z,2.25
2023-01-10T20:32:47.100Z,1.75
2023-01-10T20:35:14.205Z,3.78
2023-01-10T20:37:41.196Z,4.78
2023-01-10T20:40:09.837Z,1.90
2023-01-10T20:42:36.960Z,5.93
2023-01-10T20:45:04.461Z,2.75
2023-01-10T20:47:32.692Z,3.22
2023-01-10T20:49:59.673Z,1.67
2023-01-10T20:52:27.280Z,4.45
2023-01-10T20:54:54.433Z,3.63
2023-01-10T20:57:21.437Z,1.77
2023-01-10T20:59:48.368Z,1.25
2023-01-10T21:02:15.373Z,3.20
2023-01-10T21:04:42.329Z,2.22
2023-01-10T21:07:09.410Z,2.88
2023-01-10T21:09:36.481Z,1.65
2023-01-10T21:12:17.608Z,2.20
2023-01-10T21:14:49.453Z,4.32
2023-01-10T21:17:16.444Z,1.70
2023-01-10T21:19:43.434Z,2.70
2023-01-10T21:22:10.454Z,3.38
2023-01-10T21:24:37.541Z,3.10
2023-01-10T21:27:04.664Z,3.80
2023-01-10T21:29:31.685Z,3.70
2023-01-10T21:31:58.793Z,3.13
2023-01-10T21:34:26.525Z,3.03
2023-01-10T21:36:54.442Z,2.50
2023-01-10T21:39:21.510Z,2.95
2023-01-10T21:42:06.906Z,2.80
2023-01-10T21:44:33.902Z,3.08
2023-01-10T21:47:01.117Z,2.58
2023-01-10T21:49:28.213Z,3.33
2023-01-10T21:51:55.865Z,3.95
2023-01-10T21:54:22.825Z,2.00
2023-01-10T21:56:49.853Z,2.78
2023-01-10T21:59:17.671Z,1.92
2023-01-10T22:01:44.977Z,2.03
2023-01-10T22:04:12.757Z,2.65
2023-01-10T22:06:39.915Z,2.58
2023-01-10T22:09:07.055Z,2.35
2023-01-10T22:11:34.098Z,2.60
2023-01-10T22:14:01.071Z,1.92
2023-01-10T22:16:28.095Z,3.20
2023-01-10T22:18:55.326Z,3.05
2023-01-10T22:21:22.477Z,3.03
2023-01-10T22:23:49.500Z,1.45
2023-01-10T22:26:16.883Z,2.20
2023-01-10T22:28:43.894Z,3.83
2023-01-10T22:31:11.100Z,2.40
2023-01-10T22:33:38.295Z,1.60
2023-01-10T22:36:23.561Z,0.38
2023-01-10T22:38:50.623Z,1.83
2023-01-10T22:41:28.716Z,2.55
2023-01-10T22:43:56.287Z,3.95
2023-01-10T22:46:23.451Z,2.47
2023-01-10T22:48:50.539Z,5.93
2023-01-10T22:51:18.913Z,2.08
2023-01-10T22:53:53.542Z,0.95
2023-01-10T22:56:21.029Z,1.70
2023-01-10T22:58:48.262Z,2.58
2023-01-10T23:01:17.286Z,4.15
2023-01-10T23:03:44.588Z,5.28
2023-01-10T23:06:12.796Z,2.53
2023-01-10T23:08:42.041Z,3.10
2023-01-10T23:11:10.751Z,5.43
2023-01-10T23:13:37.926Z,2.97
2023-01-10T23:16:12.525Z,2.03
2023-01-10T23:18:40.338Z,4.28
2023-01-10T23:21:07.708Z,2.65
2023-01-10T23:23:35.021Z,4.78
2023-01-10T23:26:08.052Z,3.60
2023-01-10T23:28:38.193Z,3.97
2023-01-10T23:31:07.053Z,4.35
2023-01-10T23:33:34.967Z,3.67
2023-01-10T23:36:02.162Z,4.60
2023-01-10T23:38:31.049Z,4.55
2023-01-10T23:40:58.224Z,3.08
2023-01-10T23:43:25.385Z,2.72
2023-01-10T23:45:52.746Z,3.75
2023-01-10T23:48:20.068Z,5.40
2023-01-10T23:50:48.825Z,4.90
2023-01-10T23:53:16.545Z,4.20
2023-01-10T23:55:43.656Z,5.57
2023-01-10T23:58:10.861Z,4.70
